Time;durP1;ratioP1;P1;durP2;ratioP2;P2;SDS_P1;SDS_P2;PMS_P1;PMS_P2;Temp;Humidity;BMP_temperature;BMP_pressure;BME280_temperature;BME280_humidity;BME280_pressure;Samples;Min_cycle;Max_cycle;Signal;HPM_P1;HPM_P2
2023/04/19 00:02:01;;;;;;;23.08;16.77;;;;;;;8.96;82.05;102513.91;5051047;28;20495;-64
2023/04/19 00:04:26;;;;;;;20.55;16.52;;;;;;;8.96;82.70;102513.91;5052832;28;20124;-65
2023/04/19 00:06:51;;;;;;;21.58;16.35;;;;;;;9.02;81.78;102513.47;5054348;28;20031;-64
2023/04/19 00:09:17;;;;;;;21.10;16.60;;;;;;;8.98;81.65;102506.69;5053208;28;20067;-64
2023/04/19 00:11:42;;;;;;;22.02;16.15;;;;;;;9.04;82.00;102509.88;5052326;28;20033;-64
2023/04/19 00:14:07;;;;;;;21.20;16.55;;;;;;;9.06;81.87;102502.66;5051540;28;20039;-64
2023/04/19 00:16:33;;;;;;;21.70;16.80;;;;;;;9.09;81.48;102503.25;5051113;28;20529;-64
2023/04/19 00:18:58;;;;;;;21.45;16.17;;;;;;;9.09;81.99;102491.84;5053903;28;20047;-64
2023/04/19 00:21:23;;;;;;;21.35;16.70;;;;;;;9.09;81.78;102499.78;5054650;28;20068;-64
2023/04/19 00:23:49;;;;;;;20.85;16.73;;;;;;;9.08;82.04;102493.66;5053838;28;20041;-64
2023/04/19 00:26:14;;;;;;;23.77;16.83;;;;;;;9.12;81.11;102487.19;5043989;28;20649;-64
2023/04/19 00:28:40;;;;;;;21.30;16.73;;;;;;;9.11;82.09;102495.22;5052460;28;20032;-64
2023/04/19 00:31:05;;;;;;;23.17;16.73;;;;;;;9.15;80.82;102496.69;5050083;28;20061;-64
2023/04/19 00:33:31;;;;;;;21.52;16.92;;;;;;;9.14;81.35;102505.59;5043246;28;20048;-64
2023/04/19 00:35:57;;;;;;;22.63;17.23;;;;;;;9.16;81.55;102501.03;5054159;28;20137;-64
2023/04/19 00:38:22;;;;;;;21.92;17.15;;;;;;;9.15;81.21;102504.66;5052208;28;20453;-64
2023/04/19 00:40:47;;;;;;;21.77;16.45;;;;;;;9.17;81.61;102500.06;5053193;28;20033;-64
2023/04/19 00:43:19;;;;;;;21.27;16.70;;;;;;;9.20;80.92;102499.88;5053786;28;20051;-64
2023/04/19 00:45:46;;;;;;;20.70;16.33;;;;;;;9.21;81.91;102496.25;5052765;28;20036;-64
2023/04/19 00:48:15;;;;;;;22.05;17.00;;;;;;;9.21;82.11;102490.09;5051976;28;20045;-64
2023/04/19 00:50:43;;;;;;;21.38;16.52;;;;;;;9.21;81.26;102490.97;5053115;28;20047;-64
2023/04/19 00:53:09;;;;;;;20.83;16.85;;;;;;;9.23;81.51;102494.34;5052031;28;20075;-64
2023/04/19 00:55:35;;;;;;;21.65;16.75;;;;;;;9.25;81.59;102488.94;5053934;28;20029;-64
2023/04/19 00:58:01;;;;;;;23.10;17.35;;;;;;;9.25;81.83;102500.38;5053787;28;20349;-64
2023/04/19 01:00:26;;;;;;;22.98;16.92;;;;;;;9.26;82.12;102495.91;5051838;28;20362;-64
2023/04/19 01:02:52;;;;;;;21.40;17.15;;;;;;;9.27;82.15;102490.50;5050480;28;20058;-64
2023/04/19 01:05:18;;;;;;;22.25;16.67;;;;;;;9.26;81.87;102488.81;5053692;28;20036;-64
2023/04/19 01:07:43;;;;;;;23.33;16.67;;;;;;;9.27;81.90;102490.50;5051981;28;20025;-64
2023/04/19 01:10:09;;;;;;;22.17;16.85;;;;;;;9.26;82.70;102494.13;5052446;28;20021;-64
2023/04/19 01:12:34;;;;;;;21.90;17.00;;;;;;;9.25;82.50;102495.09;5045457;28;20108;-64
2023/04/19 01:15:00;;;;;;;22.45;17.15;;;;;;;9.24;82.73;102485.44;5052348;28;20146;-64
2023/04/19 01:17:27;;;;;;;22.85;17.05;;;;;;;9.27;82.78;102495.81;5047415;28;20040;-64
2023/04/19 01:20:02;;;;;;;21.55;16.48;;;;;;;9.29;83.23;102488.59;5043816;28;20033;-64
2023/04/19 01:22:29;;;;;;;23.85;16.75;;;;;;;9.31;82.77;102495.59;5052701;28;20025;-64
2023/04/19 01:24:54;;;;;;;24.70;16.85;;;;;;;9.28;82.76;102491.38;5052331;28;20033;-64
2023/04/19 01:27:20;;;;;;;23.10;16.55;;;;;;;9.27;83.74;102489.66;5052155;28;20029;-64
2023/04/19 01:29:45;;;;;;;22.70;16.55;;;;;;;9.25;83.51;102486.28;5051786;28;20049;-64
2023/04/19 01:32:12;;;;;;;21.77;16.80;;;;;;;9.25;83.28;102488.94;5052972;28;20029;-64
2023/04/19 01:34:37;;;;;;;23.63;16.83;;;;;;;9.25;83.23;102487.16;5049675;28;20110;-65
2023/04/19 01:37:03;;;;;;;25.98;16.88;;;;;;;9.22;83.49;102484.72;5049792;28;20915;-64
2023/04/19 01:39:29;;;;;;;22.50;16.63;;;;;;;9.26;83.10;102499.41;5049265;28;20068;-64
2023/04/19 01:41:54;;;;;;;23.45;16.40;;;;;;;9.27;82.97;102500.25;5043883;28;20033;-64
2023/04/19 01:44:19;;;;;;;22.90;16.58;;;;;;;9.26;83.79;102493.28;5049853;28;20044;-65
2023/04/19 01:46:44;;;;;;;23.02;16.60;;;;;;;9.26;83.76;102491.47;5052382;28;20036;-64
2023/04/19 01:49:10;;;;;;;22.92;16.45;;;;;;;9.29;83.62;102482.47;5050145;28;20071;-64
2023/04/19 01:51:37;;;;;;;23.08;16.92;;;;;;;9.25;84.33;102481.84;5052935;28;20032;-64
2023/04/19 01:54:03;;;;;;;21.45;16.25;;;;;;;9.25;84.91;102481.84;5047770;28;20029;-64
2023/04/19 01:56:28;;;;;;;20.95;16.30;;;;;;;9.28;83.91;102484.25;5052253;28;20044;-64
2023/04/19 01:58:54;;;;;;;24.00;17.13;;;;;;;9.22;84.90;102476.78;5050076;28;20064;-64
2023/04/19 02:01:19;;;;;;;22.85;17.10;;;;;;;9.25;84.45;102481.84;5046640;28;20138;-64
2023/04/19 02:03:45;;;;;;;22.75;17.50;;;;;;;9.26;84.23;102483.53;5049742;28;20029;-64
2023/04/19 02:06:11;;;;;;;23.90;17.35;;;;;;;9.27;84.95;102474.63;5049418;28;20427;-64
2023/04/19 02:08:38;;;;;;;22.85;16.75;;;;;;;9.26;85.29;102467.66;5039935;28;20029;-64
2023/04/19 02:11:07;;;;;;;23.55;16.85;;;;;;;9.25;85.13;102465.97;5048754;28;20135;-65
2023/04/19 02:13:33;;;;;;;23.55;16.95;;;;;;;9.25;85.48;102460.69;5051954;28;20115;-64
2023/04/19 02:16:01;;;;;;;24.42;16.42;;;;;;;9.27;85.31;102457.88;5050302;28;20116;-64
2023/04/19 02:18:28;;;;;;;23.95;17.05;;;;;;;9.27;86.07;102457.88;5052198;28;20047;-65
2023/04/19 02:20:54;;;;;;;21.85;16.55;;;;;;;9.29;86.54;102451.53;5046357;28;20025;-64
2023/04/19 02:23:19;;;;;;;25.40;17.73;;;;;;;9.31;86.39;102453.25;5050990;28;20128;-63
2023/04/19 02:25:44;;;;;;;22.25;16.63;;;;;;;9.34;86.82;102453.84;5051867;28;20036;-64
2023/04/19 02:28:10;;;;;;;24.85;16.70;;;;;;;9.34;86.50;102458.28;5051918;28;20036;-64
2023/04/19 02:30:36;;;;;;;23.35;17.35;;;;;;;9.35;86.47;102449.38;5050581;28;20485;-64
2023/04/19 02:33:01;;;;;;;22.88;17.02;;;;;;;9.37;86.36;102455.44;5049619;28;20365;-64
2023/04/19 02:35:26;;;;;;;23.33;17.35;;;;;;;9.41;86.40;102459.53;5052057;28;20029;-64
2023/04/19 02:37:51;;;;;;;22.17;16.60;;;;;;;9.40;86.56;102457.84;5051808;28;20079;-64
2023/04/19 02:40:17;;;;;;;24.20;17.67;;;;;;;9.39;87.18;102453.50;5045603;28;20112;-64
2023/04/19 02:42:42;;;;;;;25.73;17.35;;;;;;;9.43;86.01;102462.91;5050834;28;20029;-64
2023/04/19 02:45:08;;;;;;;24.15;17.02;;;;;;;9.44;86.48;102458.44;5049975;28;20041;-64
2023/04/19 02:47:33;;;;;;;22.98;16.60;;;;;;;9.43;87.22;102457.63;5049886;28;20395;-64
2023/04/19 02:49:59;;;;;;;26.50;17.80;;;;;;;9.43;87.14;102457.63;5050393;28;20063;-64
2023/04/19 02:52:25;;;;;;;23.38;16.92;;;;;;;9.42;87.09;102455.91;5050665;28;20029;-64
2023/04/19 02:54:50;;;;;;;24.35;16.35;;;;;;;9.44;87.05;102459.31;5046842;28;20350;-64
2023/04/19 02:57:15;;;;;;;22.48;16.75;;;;;;;9.44;87.04;102456.66;5050214;28;20039;-63
2023/04/19 02:59:41;;;;;;;23.45;16.92;;;;;;;9.45;87.15;102474.22;5045824;28;20059;-64
2023/04/19 03:02:06;;;;;;;21.52;15.82;;;;;;;9.46;87.58;102467.97;5049107;28;20033;-64
2023/04/19 03:04:31;;;;;;;23.63;17.02;;;;;;;9.46;87.27;102470.63;5045094;28;20373;-64
2023/04/19 03:06:56;;;;;;;23.83;16.55;;;;;;;9.44;88.07;102459.31;5051366;28;20037;-64
2023/04/19 03:09:22;;;;;;;22.73;16.83;;;;;;;9.44;87.17;102469.91;5051256;28;20029;-64
2023/04/19 03:11:47;;;;;;;22.38;16.17;;;;;;;9.46;88.00;102462.69;5049123;28;20071;-64
2023/04/19 03:14:12;;;;;;;23.50;16.60;;;;;;;9.48;87.90;102465.22;5049217;28;20683;-64
2023/04/19 03:16:38;;;;;;;23.90;16.88;;;;;;;9.45;88.36;102466.28;5051800;28;20036;-64
2023/04/19 03:19:03;;;;;;;23.35;16.63;;;;;;;9.42;88.84;102456.78;5044872;28;20076;-64
2023/04/19 03:21:28;;;;;;;25.40;16.80;;;;;;;9.40;89.12;102456.06;5050670;28;20033;-64
2023/04/19 03:23:54;;;;;;;27.00;16.90;;;;;;;9.40;88.31;102463.13;5047004;28;20392;-64
2023/04/19 03:26:19;;;;;;;23.23;16.85;;;;;;;9.40;87.58;102457.84;5047465;28;20461;-64
2023/04/19 03:28:45;;;;;;;23.80;16.27;;;;;;;9.35;88.90;102449.38;5050091;28;20118;-64
2023/04/19 03:31:10;;;;;;;22.75;15.95;;;;;;;9.31;88.94;102450.59;5050411;28;20043;-64
2023/04/19 03:33:35;;;;;;;22.95;15.70;;;;;;;9.33;88.21;102448.66;5051347;28;20522;-64
2023/04/19 03:36:01;;;;;;;23.40;16.48;;;;;;;9.33;88.32;102452.16;5049683;28;20039;-64
2023/04/19 03:38:26;;;;;;;22.55;15.43;;;;;;;9.28;88.74;102439.25;5043898;28;20037;-64
2023/04/19 03:40:51;;;;;;;21.73;15.40;;;;;;;9.27;88.81;102442.00;5048792;28;20029;-64
2023/04/19 03:43:17;;;;;;;23.48;16.23;;;;;;;9.27;88.16;102442.88;5050156;28;20041;-64
2023/04/19 03:45:42;;;;;;;22.38;15.82;;;;;;;9.26;88.65;102441.19;5051563;28;20330;-64
2023/04/19 03:48:07;;;;;;;21.02;15.23;;;;;;;9.27;88.50;102442.88;5050298;28;20096;-64
2023/04/19 03:50:33;;;;;;;21.60;16.20;;;;;;;9.25;88.61;102436.84;5049540;28;20033;-64
2023/04/19 03:52:58;;;;;;;22.17;15.50;;;;;;;9.23;89.28;102446.69;5049924;28;20029;-63
2023/04/19 03:55:23;;;;;;;22.30;15.75;;;;;;;9.24;89.49;102453.66;5051448;28;20025;-64
2023/04/19 03:57:49;;;;;;;20.63;15.15;;;;;;;9.22;89.70;102444.19;5048996;28;20060;-64
2023/04/19 04:00:15;;;;;;;20.45;14.68;;;;;;;9.23;89.10;102446.69;5048317;28;20435;-63
2023/04/19 04:02:40;;;;;;;21.55;15.70;;;;;;;9.24;88.93;102443.06;5040814;28;20037;-64
2023/04/19 04:05:06;;;;;;;20.92;15.10;;;;;;;9.20;89.33;102454.88;5048716;28;20033;-64
2023/04/19 04:07:31;;;;;;;21.15;15.38;;;;;;;9.20;89.35;102454.88;5047131;28;20543;-64
2023/04/19 04:09:57;;;;;;;21.65;14.32;;;;;;;9.20;88.50;102446.06;5050837;28;20033;-64
2023/04/19 04:12:22;;;;;;;19.83;14.73;;;;;;;9.14;89.19;102447.38;5046780;28;20041;-64
2023/04/19 04:14:47;;;;;;;22.13;13.52;;;;;;;9.18;88.92;102456.75;5049750;28;20055;-64
2023/04/19 04:17:12;;;;;;;22.88;13.82;;;;;;;9.12;89.00;102454.56;5050863;28;20494;-64
2023/04/19 04:19:38;;;;;;;20.58;14.35;;;;;;;9.11;88.50;102445.78;5039678;28;20044;-64
2023/04/19 04:22:04;;;;;;;19.50;13.80;;;;;;;9.05;89.34;102448.03;5047605;28;20044;-64
2023/04/19 04:24:31;;;;;;;21.13;14.20;;;;;;;9.09;88.91;102450.34;5048759;28;20074;-64
2023/04/19 04:26:59;;;;;;;19.35;14.10;;;;;;;9.01;89.47;102453.56;5044091;28;20037;-64
2023/04/19 04:29:25;;;;;;;20.42;13.73;;;;;;;9.06;88.14;102455.00;5050666;28;20358;-64
2023/04/19 04:31:50;;;;;;;19.75;14.05;;;;;;;9.01;88.47;102456.22;5044190;28;20033;-64
2023/04/19 04:34:15;;;;;;;20.38;13.82;;;;;;;9.00;89.03;102456.31;5053097;28;20416;-64
2023/04/19 04:36:41;;;;;;;20.40;13.57;;;;;;;8.98;88.60;102450.31;5053604;28;20031;-64
2023/04/19 04:39:09;;;;;;;20.63;13.98;;;;;;;8.96;88.49;102458.34;5053368;28;20036;-64
2023/04/19 04:41:34;;;;;;;20.33;14.05;;;;;;;8.92;88.66;102454.22;5050877;28;20659;-64
2023/04/19 04:44:03;;;;;;;18.45;12.93;;;;;;;8.87;89.24;102457.19;5053924;28;20037;-63
2023/04/19 04:46:28;;;;;;;18.88;13.70;;;;;;;8.89;88.89;102462.38;5045922;28;20356;-64
2023/04/19 04:48:54;;;;;;;25.67;13.90;;;;;;;8.86;88.63;102459.94;5053129;28;20049;-64
2023/04/19 04:51:19;;;;;;;18.20;13.05;;;;;;;8.85;89.46;102464.41;5044392;28;20029;-64
2023/04/19 04:53:46;;;;;;;19.27;13.23;;;;;;;8.81;89.12;102456.78;5047644;28;20033;-64
2023/04/19 04:56:11;;;;;;;18.65;12.98;;;;;;;8.81;88.56;102467.38;5045827;28;20044;-64
2023/04/19 04:58:36;;;;;;;19.58;12.95;;;;;;;8.81;88.15;102465.59;5043131;28;20055;-64
2023/04/19 05:01:02;;;;;;;17.23;11.88;;;;;;;8.80;88.07;102465.69;5045365;28;20032;-64
2023/04/19 05:03:27;;;;;;;16.27;11.90;;;;;;;8.73;87.61;102476.69;5047336;28;20033;-64
2023/04/19 05:05:53;;;;;;;16.70;11.52;;;;;;;8.70;87.31;102471.66;5041388;28;20021;-64
2023/04/19 05:08:18;;;;;;;35.50;12.02;;;;;;;8.70;87.57;102470.78;5042842;28;20060;-64
2023/04/19 05:10:44;;;;;;;16.20;10.65;;;;;;;8.63;86.98;102480.94;5046669;28;20025;-64
2023/04/19 05:13:09;;;;;;;17.00;10.52;;;;;;;8.65;86.09;102476.41;5044176;28;20037;-64
2023/04/19 05:15:34;;;;;;;15.82;10.57;;;;;;;8.56;86.73;102472.63;5047461;28;20029;-64
2023/04/19 05:17:59;;;;;;;15.30;9.85;;;;;;;8.59;86.00;102485.59;5046660;28;20068;-65
2023/04/19 05:20:25;;;;;;;14.50;10.00;;;;;;;8.50;86.24;102474.78;5044381;28;20033;-64
2023/04/19 05:22:55;;;;;;;15.27;10.25;;;;;;;8.54;85.78;102478.97;5047974;28;20456;-64
2023/04/19 05:25:21;;;;;;;15.48;9.77;;;;;;;8.48;85.96;102483.69;5043038;28;20030;-64
2023/04/19 05:27:46;;;;;;;15.23;9.82;;;;;;;8.54;85.52;102486.88;5046866;28;20039;-64
2023/04/19 05:30:11;;;;;;;13.43;9.73;;;;;;;8.53;86.09;102479.91;5043819;28;20451;-65
2023/04/19 05:32:37;;;;;;;18.35;10.90;;;;;;;8.51;86.38;102484.41;5044995;28;20060;-63
2023/04/19 05:35:02;;;;;;;13.20;9.82;;;;;;;8.48;85.85;102494.25;5048208;28;20103;-64
2023/04/19 05:37:29;;;;;;;15.00;10.57;;;;;;;8.45;86.20;102486.53;5044035;28;20484;-64
2023/04/19 05:39:54;;;;;;;15.20;10.30;;;;;;;8.50;86.73;102490.66;5042334;28;20071;-64
2023/04/19 05:42:20;;;;;;;18.00;10.05;;;;;;;8.50;85.77;102485.38;5047833;28;20021;-63
2023/04/19 05:44:45;;;;;;;16.55;10.18;;;;;;;8.56;85.54;102484.97;5043442;28;20481;-64
2023/04/19 05:47:10;;;;;;;16.52;9.80;;;;;;;8.54;84.52;102477.16;5044305;28;20380;-64
2023/04/19 05:49:36;;;;;;;15.80;10.30;;;;;;;8.54;85.20;102481.59;5042416;28;20045;-64
2023/04/19 05:52:01;;;;;;;15.95;10.27;;;;;;;8.53;85.64;102485.22;5043112;28;20036;-64
2023/04/19 05:54:27;;;;;;;15.15;10.18;;;;;;;8.56;84.75;102480.53;5048093;28;20055;-64
2023/04/19 05:56:52;;;;;;;14.27;9.45;;;;;;;8.54;85.00;102481.59;5048504;28;20032;-64
2023/04/19 05:59:17;;;;;;;15.13;9.48;;;;;;;8.53;84.19;102486.03;5047600;28;20033;-64
2023/04/19 06:01:43;;;;;;;17.00;9.95;;;;;;;8.58;84.33;102488.34;5043928;28;20045;-64
2023/04/19 06:04:08;;;;;;;16.35;10.55;;;;;;;8.46;85.09;102485.59;5045117;28;20028;-64
2023/04/19 06:06:33;;;;;;;13.32;9.57;;;;;;;8.42;84.62;102489.41;5047512;28;20029;-65
2023/04/19 06:08:59;;;;;;;14.20;9.95;;;;;;;8.35;84.13;102493.44;5043973;28;20056;-64
2023/04/19 06:11:24;;;;;;;17.67;10.15;;;;;;;8.32;84.92;102490.97;5042652;28;20389;-64
2023/04/19 06:13:50;;;;;;;14.48;9.88;;;;;;;8.35;84.86;102494.25;5043914;28;20484;-64
2023/04/19 06:16:15;;;;;;;14.82;10.20;;;;;;;8.38;84.94;102498.47;5045410;28;20068;-64
2023/04/19 06:18:42;;;;;;;15.18;10.02;;;;;;;8.46;84.02;102496.19;5043541;28;20510;-65
2023/04/19 06:21:07;;;;;;;17.33;10.40;;;;;;;8.53;83.72;102496.59;5038558;28;20056;-64
2023/04/19 06:23:32;;;;;;;17.10;10.00;;;;;;;8.58;83.01;102491.84;5042783;28;20152;-65
2023/04/19 06:25:58;;;;;;;13.27;9.25;;;;;;;8.71;81.52;102494.50;5048948;28;20133;-64
2023/04/19 06:28:23;;;;;;;14.90;9.07;;;;;;;8.75;82.17;102498.59;5042638;28;20037;-64
2023/04/19 06:30:48;;;;;;;14.35;9.20;;;;;;;8.78;79.65;102499.34;5046905;28;20041;-64
2023/04/19 06:33:13;;;;;;;15.45;9.50;;;;;;;8.80;79.81;102492.13;5044730;28;20459;-64
2023/04/19 06:35:39;;;;;;;14.63;8.88;;;;;;;8.90;78.13;102500.25;5042318;28;20039;-65
2023/04/19 06:38:04;;;;;;;13.70;8.63;;;;;;;8.91;77.94;102484.28;5045359;28;20033;-64
2023/04/19 06:40:30;;;;;;;13.32;8.82;;;;;;;8.96;76.34;102484.81;5046071;28;20094;-64
2023/04/19 06:42:55;;;;;;;12.27;8.50;;;;;;;9.04;74.29;102478.97;5041090;28;20120;-64
2023/04/19 06:45:21;;;;;;;14.27;8.77;;;;;;;9.06;73.53;102482.34;5044973;28;20467;-64
2023/04/19 06:47:46;;;;;;;12.45;8.90;;;;;;;9.07;75.14;102483.19;5042317;28;20137;-65
2023/04/19 06:50:12;;;;;;;13.55;8.55;;;;;;;9.13;73.78;102478.28;5043135;28;20075;-65
2023/04/19 06:52:37;;;;;;;13.63;9.02;;;;;;;9.22;73.41;102484.72;5041926;28;20473;-65
2023/04/19 06:55:03;;;;;;;13.13;8.80;;;;;;;9.28;72.36;102481.59;5047162;28;20071;-65
2023/04/19 06:57:29;;;;;;;13.63;8.80;;;;;;;9.26;71.78;102488.81;5038965;28;20102;-64
2023/04/19 06:59:54;;;;;;;11.77;8.35;;;;;;;9.31;70.94;102485.00;5045712;28;20033;-64
2023/04/19 07:02:19;;;;;;;12.52;8.77;;;;;;;9.39;69.74;102487.94;5042209;28;20056;-64
2023/04/19 07:04:46;;;;;;;12.93;8.35;;;;;;;9.43;69.77;102478.81;5045602;28;20025;-64
2023/04/19 07:07:11;;;;;;;13.02;8.20;;;;;;;9.40;71.17;102484.31;5041682;28;20045;-64
2023/04/19 07:09:36;;;;;;;12.85;7.93;;;;;;;9.55;68.84;102488.50;5045245;28;20064;-64
2023/04/19 07:12:02;;;;;;;15.75;8.25;;;;;;;9.47;68.28;102490.84;5039424;28;20063;-65
2023/04/19 07:14:27;;;;;;;12.55;7.70;;;;;;;9.52;68.20;102496.66;5044090;28;20550;-65
2023/04/19 07:16:52;;;;;;;12.95;8.50;;;;;;;9.57;67.01;102484.88;5042630;28;20613;-65
2023/04/19 07:19:19;;;;;;;11.30;8.07;;;;;;;9.57;67.93;102484.88;5046034;28;20058;-65
2023/04/19 07:21:44;;;;;;;11.80;8.07;;;;;;;9.62;67.93;102482.75;5044634;28;20021;-65
2023/04/19 07:24:10;;;;;;;12.77;8.07;;;;;;;9.71;67.27;102487.34;5049029;28;20487;-65
2023/04/19 07:26:35;;;;;;;11.57;7.85;;;;;;;9.74;68.11;102487.13;5044729;28;20061;-65
2023/04/19 07:29:02;;;;;;;11.15;7.50;;;;;;;9.85;66.11;102496.91;5043181;28;20025;-64
2023/04/19 07:31:27;;;;;;;13.00;8.30;;;;;;;9.87;64.64;102491.50;5047155;28;20037;-64
2023/04/19 07:33:53;;;;;;;12.98;8.18;;;;;;;9.90;65.38;102491.25;5050723;28;20028;-65
2023/04/19 07:36:18;;;;;;;12.98;8.02;;;;;;;9.92;63.59;102484.03;5048655;28;20389;-64
2023/04/19 07:38:43;;;;;;;12.93;8.02;;;;;;;9.93;65.44;102480.41;5050804;28;20031;-65
2023/04/19 07:41:09;;;;;;;12.63;7.95;;;;;;;10.04;64.64;102483.09;5051896;28;20037;-64
2023/04/19 07:43:35;;;;;;;14.05;7.68;;;;;;;10.02;63.20;102479.69;5041920;28;20030;-64
2023/04/19 07:46:01;;;;;;;11.02;7.65;;;;;;;10.12;64.13;102484.31;5050045;28;20033;-64
2023/04/19 07:48:26;;;;;;;11.63;7.97;;;;;;;10.22;63.50;102480.00;5048347;28;20477;-65
2023/04/19 07:50:52;;;;;;;11.75;7.85;;;;;;;10.29;63.44;102480.34;5042142;28;20373;-64
2023/04/19 07:53:17;;;;;;;12.50;8.20;;;;;;;10.41;62.96;102489.19;5050615;28;20025;-64
2023/04/19 07:55:43;;;;;;;11.70;7.90;;;;;;;10.43;61.21;102485.47;5050582;28;20037;-64
2023/04/19 07:58:08;;;;;;;10.77;7.93;;;;;;;10.40;61.68;102482.19;5047085;28;20083;-65
2023/04/19 08:00:35;;;;;;;10.77;7.60;;;;;;;10.47;60.66;102468.34;5043219;28;20040;-65
2023/04/19 08:03:01;;;;;;;11.00;7.68;;;;;;;10.47;60.39;102483.41;5046400;28;20484;-65
2023/04/19 08:05:26;;;;;;;13.35;7.90;;;;;;;10.52;60.61;102475.94;5047993;28;20057;-65
2023/04/19 08:07:52;;;;;;;13.32;7.88;;;;;;;10.55;60.70;102470.38;5048792;28;20393;-68
2023/04/19 08:10:18;;;;;;;12.68;7.55;;;;;;;10.63;62.14;102462.69;5048229;28;20656;-68
2023/04/19 08:12:43;;;;;;;11.68;7.75;;;;;;;10.76;61.73;102473.16;5048517;28;20032;-68
2023/04/19 08:15:08;;;;;;;11.55;7.88;;;;;;;10.80;61.38;102464.97;5050697;28;20029;-68
2023/04/19 08:17:34;;;;;;;11.77;7.72;;;;;;;10.88;59.23;102466.03;5041488;28;20044;-68
2023/04/19 08:19:59;;;;;;;12.95;7.50;;;;;;;10.95;57.32;102469.00;5051549;28;20029;-68
2023/04/19 08:22:25;;;;;;;11.20;7.65;;;;;;;10.89;58.25;102466.84;5047804;28;20752;-67
2023/04/19 08:24:51;;;;;;;12.15;7.60;;;;;;;10.91;57.86;102459.63;5051504;28;20031;-68
2023/04/19 08:27:17;;;;;;;11.18;7.95;;;;;;;10.93;56.88;102462.13;5051603;28;20024;-67
2023/04/19 08:29:43;;;;;;;10.98;7.18;;;;;;;10.96;57.82;102461.91;5053470;28;20613;-68
2023/04/19 08:32:08;;;;;;;11.73;7.82;;;;;;;11.10;58.54;102466.94;5053447;28;20027;-68
2023/04/19 08:34:35;;;;;;;10.10;7.10;;;;;;;11.14;56.65;102468.38;5051618;28;20035;-68
2023/04/19 08:37:02;;;;;;;16.67;8.23;;;;;;;11.15;57.65;102466.56;5050021;28;20028;-68
2023/04/19 08:39:27;;;;;;;11.30;7.30;;;;;;;11.27;55.34;102464.72;5048613;28;20028;-69
2023/04/19 08:41:55;;;;;;;11.13;7.63;;;;;;;11.26;54.45;102465.69;5048468;28;20028;-67
2023/04/19 08:44:21;;;;;;;12.43;7.88;;;;;;;11.26;55.86;102463.03;5051789;28;20140;-68
2023/04/19 08:46:49;;;;;;;12.05;7.53;;;;;;;11.32;54.89;102467.84;5054076;28;20420;-67
2023/04/19 08:49:18;;;;;;;10.77;7.15;;;;;;;11.38;54.12;102451.41;5054592;28;20045;-68
2023/04/19 08:51:46;;;;;;;12.35;7.57;;;;;;;11.39;53.45;102458.38;5043132;28;20036;-68
2023/04/19 08:54:11;;;;;;;10.27;7.38;;;;;;;11.42;52.61;102460.81;5054454;28;20033;-68
2023/04/19 08:56:37;;;;;;;9.93;6.53;;;;;;;11.43;52.04;102461.63;5051867;28;20124;-63
2023/04/19 08:59:02;;;;;;;11.80;7.75;;;;;;;11.50;52.93;102448.69;5050613;28;20088;-64
2023/04/19 09:01:28;;;;;;;13.23;7.32;;;;;;;11.50;52.08;102443.38;5052690;28;20036;-64
2023/04/19 09:03:53;;;;;;;12.55;7.10;;;;;;;11.57;52.14;102460.50;5051688;28;20481;-63
2023/04/19 09:06:18;;;;;;;13.18;7.25;;;;;;;11.61;53.19;102453.09;5051094;28;20120;-65
2023/04/19 09:08:43;;;;;;;11.07;7.18;;;;;;;11.68;52.79;102457.78;5048614;28;20021;-63
2023/04/19 09:11:09;;;;;;;12.02;6.78;;;;;;;11.74;50.97;102451.09;5048288;28;20044;-64
2023/04/19 09:13:37;;;;;;;10.20;6.68;;;;;;;11.74;51.06;102450.25;5044843;28;20037;-64
2023/04/19 09:16:03;;;;;;;9.50;5.93;;;;;;;11.82;51.17;102463.75;5052393;28;20028;-63
2023/04/19 09:18:29;;;;;;;9.23;6.15;;;;;;;11.86;48.57;102459.84;5054333;28;20063;-63
2023/04/19 09:20:57;;;;;;;9.38;6.00;;;;;;;11.89;49.85;102451.59;5052410;28;20060;-64
2023/04/19 09:23:24;;;;;;;13.30;6.40;;;;;;;11.94;50.47;102452.06;5051314;28;20063;-64
2023/04/19 09:25:59;;;;;;;10.93;5.82;;;;;;;12.07;49.85;102445.72;5049539;28;20029;-64
2023/04/19 09:28:26;;;;;;;10.88;5.55;;;;;;;12.09;48.63;102454.44;5053998;28;20044;-64
2023/04/19 09:30:51;;;;;;;9.15;5.65;;;;;;;12.17;46.82;102456.41;5049362;28;20358;-64
2023/04/19 09:33:32;;;;;;;8.80;5.43;;;;;;;12.21;46.96;102463.16;5047553;28;20078;-63
2023/04/19 09:35:58;;;;;;;9.90;5.63;;;;;;;12.11;46.86;102460.44;5051602;28;20033;-64
2023/04/19 09:38:23;;;;;;;8.45;5.47;;;;;;;12.14;46.74;102451.38;5052735;28;20027;-63
2023/04/19 09:40:49;;;;;;;9.30;5.32;;;;;;;12.29;46.65;102454.53;5052294;28;20488;-64
2023/04/19 09:43:23;;;;;;;9.48;5.35;;;;;;;12.24;46.62;102458.41;5048246;28;20079;-64
2023/04/19 09:45:48;;;;;;;8.95;5.13;;;;;;;12.30;46.81;102464.19;5046554;28;20393;-63
2023/04/19 09:48:13;;;;;;;11.00;4.97;;;;;;;12.31;44.18;102452.56;5053325;28;20053;-63
2023/04/19 09:51:05;;;;;;;10.00;5.00;;;;;;;12.29;45.65;102438.56;5051133;28;20098;-64
2023/04/19 09:53:34;;;;;;;8.27;4.70;;;;;;;12.18;43.69;102442.97;5046631;28;20140;-64
2023/04/19 09:56:00;;;;;;;7.53;5.10;;;;;;;12.21;45.92;102448.06;5049170;28;20125;-64
2023/04/19 09:58:25;;;;;;;9.55;4.93;;;;;;;12.35;45.11;102435.38;5047783;28;20080;-64
2023/04/19 10:00:51;;;;;;;7.40;4.90;;;;;;;12.38;45.03;102432.41;5052570;28;20032;-64
2023/04/19 10:03:19;;;;;;;10.30;4.80;;;;;;;12.44;45.42;102437.19;5051944;28;20044;-64
2023/04/19 10:05:44;;;;;;;9.40;5.05;;;;;;;12.43;45.85;102446.16;5047201;28;20032;-64
2023/04/19 10:08:11;;;;;;;5.47;4.55;;;;;;;12.54;42.97;102457.69;5051308;28;20048;-63
2023/04/19 10:10:39;;;;;;;8.15;4.53;;;;;;;12.54;41.56;102449.72;5052029;28;20025;-64
2023/04/19 10:13:07;;;;;;;7.03;4.60;;;;;;;12.57;41.58;102458.25;5048999;28;20075;-63
2023/04/19 10:15:35;;;;;;;5.70;4.20;;;;;;;12.60;42.16;102446.50;5043163;28;20418;-64
2023/04/19 10:18:02;;;;;;;8.90;5.00;;;;;;;12.64;42.19;102438.13;5039210;28;20029;-64
2023/04/19 10:20:46;;;;;;;9.75;5.13;;;;;;;12.75;43.55;102439.84;5050424;28;20047;-64
2023/04/19 10:23:12;;;;;;;8.95;4.70;;;;;;;12.76;41.52;102441.53;5050642;28;20476;-64
2023/04/19 10:25:37;;;;;;;7.55;4.57;;;;;;;12.70;42.27;102446.53;5051825;28;20044;-64
2023/04/19 10:28:03;;;;;;;8.35;4.38;;;;;;;12.73;41.75;102441.78;5040575;28;20040;-63
2023/04/19 10:30:29;;;;;;;7.70;4.15;;;;;;;12.75;41.72;102428.34;5051618;28;20040;-63
2023/04/19 10:32:58;;;;;;;6.03;3.70;;;;;;;12.77;39.60;102432.56;5044938;28;20029;-64
2023/04/19 10:35:28;;;;;;;9.93;3.90;;;;;;;12.65;39.59;102433.66;5049573;28;20090;-64
2023/04/19 10:38:08;;;;;;;6.55;3.67;;;;;;;12.67;40.48;102434.34;5050214;28;20430;-64
2023/04/19 10:40:59;;;;;;;6.35;3.40;;;;;;;12.60;39.55;102430.53;5047866;28;20035;-65
2023/04/19 10:43:33;;;;;;;6.97;3.70;;;;;;;12.57;38.61;102436.97;5045549;28;20025;-63
2023/04/19 10:46:01;;;;;;;5.18;3.50;;;;;;;12.68;40.55;102422.72;5050181;28;20035;-64
2023/04/19 10:48:29;;;;;;;5.47;3.50;;;;;;;12.78;38.95;102426.25;5046120;28;20675;-64
2023/04/19 10:50:59;;;;;;;8.73;3.40;;;;;;;12.92;38.31;102429.47;5045843;28;20055;-63
2023/04/19 10:53:42;;;;;;;4.63;3.40;;;;;;;12.90;38.68;102420.81;5050101;28;20051;-63
2023/04/19 10:56:07;;;;;;;;;;;;;;;13.01;38.62;102428.66;5050179;28;20029;-63
2023/04/19 10:59:01;;;;;;;8.65;3.20;;;;;;;13.03;38.33;102425.88;5050850;28;19950;-63
2023/04/19 11:01:38;;;;;;;4.85;2.97;;;;;;;13.00;38.55;102415.47;5052273;28;20392;-64
2023/04/19 11:04:04;;;;;;;4.97;3.00;;;;;;;13.14;37.31;102419.56;5052256;28;20021;-64
2023/04/19 11:06:31;;;;;;;4.72;2.60;;;;;;;13.22;37.73;102413.53;5047874;28;20036;-64
2023/04/19 11:08:56;;;;;;;4.63;2.55;;;;;;;13.35;37.10;102415.91;5048813;28;20469;-64
2023/04/19 11:11:24;;;;;;;4.75;2.80;;;;;;;13.31;35.81;102405.53;5041323;28;20021;-63
2023/04/19 11:13:49;;;;;;;5.93;2.88;;;;;;;13.36;37.47;102410.44;5044474;28;20033;-64
2023/04/19 11:16:15;;;;;;;4.35;2.70;;;;;;;13.43;36.84;102405.41;5051635;28;20554;-63